Time;durP1;ratioP1;P1;durP2;ratioP2;P2;SDS_P1;SDS_P2;PMS_P1;PMS_P2;Temp;Humidity;BMP_temperature;BMP_pressure;BME280_temperature;BME280_humidity;BME280_pressure;Samples;Min_cycle;Max_cycle;Signal;HPM_P1;HPM_P2
2021/09/13 00:00:54;;;;;;;20.60;4.20;;;;;;;18.83;53.63;99172.05;26954;1219;3026099;-64
2021/09/13 00:03:24;;;;;;;19.10;5.50;;;;;;;18.83;53.56;99171.55;26929;1220;3048769;-65
2021/09/13 00:05:54;;;;;;;19.80;5.40;;;;;;;18.80;53.86;99170.73;27112;1219;3026375;-66
2021/09/13 00:08:43;;;;;;;17.90;4.80;;;;;;;18.85;53.26;99167.45;26906;1219;3053991;-63
2021/09/13 00:11:18;;;;;;;20.10;5.00;;;;;;;18.83;53.54;99173.69;26983;1226;3070736;-63
2021/09/13 00:14:07;;;;;;;15.50;4.90;;;;;;;18.80;53.98;99173.33;26921;1219;3049151;-65
2021/09/13 00:16:39;;;;;;;18.60;5.70;;;;;;;18.79;53.99;99169.42;27037;1219;3026553;-65
2021/09/13 00:19:29;;;;;;;19.90;5.50;;;;;;;18.78;54.26;99170.94;26922;1227;3053317;-64
2021/09/13 00:22:02;;;;;;;16.50;5.40;;;;;;;18.80;54.02;99168.27;26941;1219;3027826;-63
2021/09/13 00:24:52;;;;;;;15.80;4.80;;;;;;;18.81;53.91;99165.09;26948;1219;3049575;-64
2021/09/13 00:27:22;;;;;;;19.20;4.60;;;;;;;18.81;53.76;99163.95;26994;1219;3026284;-64
2021/09/13 00:29:52;;;;;;;15.00;4.60;;;;;;;18.80;53.74;99161.66;26986;1227;3027599;-65
2021/09/13 00:32:23;;;;;;;14.50;4.90;;;;;;;18.79;53.76;99164.94;26992;1221;3026732;-69
2021/09/13 00:34:57;;;;;;;13.30;4.70;;;;;;;18.80;53.72;99166.48;26966;1220;3047936;-66
2021/09/13 00:37:28;;;;;;;18.30;5.10;;;;;;;18.71;53.53;99167.90;26990;1220;3026369;-64
2021/09/13 00:40:00;;;;;;;14.50;4.40;;;;;;;18.71;53.48;99169.70;26950;1225;3026363;-67
2021/09/13 00:42:33;;;;;;;12.20;3.80;;;;;;;18.70;53.75;99170.85;27081;1219;3026932;-67
2021/09/13 00:45:03;;;;;;;16.10;4.00;;;;;;;18.72;53.56;99172.96;26966;1220;3027403;-62
2021/09/13 00:47:32;;;;;;;22.00;4.20;;;;;;;18.74;53.38;99172.02;26940;1218;3026983;-68
2021/09/13 00:50:02;;;;;;;12.50;4.00;;;;;;;18.78;53.37;99171.64;26913;1219;3026369;-60
2021/09/13 00:52:32;;;;;;;19.10;4.60;;;;;;;18.76;53.21;99171.96;27009;1220;3048557;-66
2021/09/13 00:55:02;;;;;;;16.80;3.90;;;;;;;18.82;52.85;99170.16;26927;1220;3026542;-67
2021/09/13 00:57:30;;;;;;;17.80;4.40;;;;;;;18.83;52.98;99171.13;27005;1218;3054906;-67
2021/09/13 00:59:59;;;;;;;23.60;4.60;;;;;;;18.82;53.55;99170.59;26884;1218;3030001;-63
2021/09/13 01:02:44;;;;;;;13.20;4.60;;;;;;;18.79;53.43;99171.66;26944;1220;3054499;-61
2021/09/13 01:05:13;;;;;;;22.30;5.10;;;;;;;18.77;53.59;99172.48;26946;1220;3026451;-67
2021/09/13 01:08:02;;;;;;;19.90;4.70;;;;;;;18.69;53.73;99171.27;26916;1218;3052607;-64
2021/09/13 01:10:31;;;;;;;11.70;4.40;;;;;;;18.65;53.90;99170.27;26901;1219;3026104;-68
2021/09/13 01:13:02;;;;;;;21.40;4.80;;;;;;;18.65;53.82;99173.30;26975;1220;3056774;-64
2021/09/13 01:15:38;;;;;;;15.90;4.50;;;;;;;18.60;53.87;99170.96;26904;1220;3026445;-65
2021/09/13 01:18:27;;;;;;;14.50;4.00;;;;;;;18.68;53.43;99173.23;26911;1220;3052539;-65
2021/09/13 01:20:56;;;;;;;15.10;4.00;;;;;;;18.66;53.66;99167.55;26921;1220;3026187;-65
2021/09/13 01:23:27;;;;;;;14.90;4.30;;;;;;;18.64;53.44;99170.20;26897;1220;3050081;-66
2021/09/13 01:26:03;;;;;;;11.20;3.20;;;;;;;18.64;53.64;99171.45;26890;1219;3054848;-63
2021/09/13 01:28:32;;;;;;;15.40;4.20;;;;;;;18.65;53.52;99169.19;26911;1220;3026197;-63
2021/09/13 01:31:02;;;;;;;18.60;3.80;;;;;;;18.67;52.97;99167.10;26912;1220;3026481;-68
2021/09/13 01:33:31;;;;;;;10.60;3.20;;;;;;;18.72;53.16;99163.72;26955;1219;3027947;-66
2021/09/13 01:36:00;;;;;;;16.50;3.90;;;;;;;18.69;53.05;99164.05;26913;1219;3026394;-64
2021/09/13 01:38:31;;;;;;;12.90;3.50;;;;;;;18.72;52.27;99165.34;26899;1220;3069775;-65
2021/09/13 01:41:00;;;;;;;14.90;2.60;;;;;;;18.74;51.89;99167.26;26922;1220;3027027;-64
2021/09/13 01:43:30;;;;;;;10.90;3.10;;;;;;;18.73;51.01;99165.70;26920;1224;3028307;-66
2021/09/13 01:45:59;;;;;;;13.90;2.40;;;;;;;18.79;51.11;99164.41;26921;1220;3027186;-66
2021/09/13 01:48:27;;;;;;;14.50;2.60;;;;;;;18.80;51.41;99164.69;26944;1219;3050902;-68
2021/09/13 01:50:59;;;;;;;20.90;3.30;;;;;;;18.84;50.98;99161.65;26921;1220;3026007;-64
2021/09/13 01:53:31;;;;;;;;;;;;;;;18.87;51.81;99160.16;26904;1222;3070731;-65
2021/09/13 01:56:01;;;;;;;13.30;3.50;;;;;;;18.84;51.89;99157.42;26920;1220;3026293;-63
2021/09/13 01:58:30;;;;;;;12.10;2.90;;;;;;;18.84;52.06;99154.40;26934;1220;3028661;-67
2021/09/13 02:00:59;;;;;;;13.40;2.90;;;;;;;18.80;52.26;99157.56;26901;1221;3068098;-68
2021/09/13 02:03:28;;;;;;;23.20;4.50;;;;;;;18.76;52.84;99157.46;26906;1220;3026388;-65
2021/09/13 02:05:58;;;;;;;22.50;5.30;;;;;;;18.70;53.68;99153.10;26917;1221;3026144;-68
2021/09/13 02:08:28;;;;;;;17.10;5.30;;;;;;;18.62;54.54;99152.66;26918;1220;3026734;-64
2021/09/13 02:10:59;;;;;;;17.90;6.30;;;;;;;18.50;55.62;99148.02;26944;1220;3027591;-66
2021/09/13 02:13:28;;;;;;;20.50;5.80;;;;;;;18.31;56.24;99145.55;26884;1220;3026465;-66
2021/09/13 02:15:58;;;;;;;16.30;4.30;;;;;;;18.24;55.52;99143.25;26920;1220;3053671;-65
2021/09/13 02:18:27;;;;;;;15.00;4.10;;;;;;;18.25;55.22;99147.21;26896;1219;3028702;-65
2021/09/13 02:21:16;;;;;;;22.30;4.50;;;;;;;18.27;55.09;99143.88;26906;1220;3052271;-67
2021/09/13 02:23:45;;;;;;;19.90;5.40;;;;;;;18.29;55.02;99144.02;26913;1219;3027761;-66
2021/09/13 02:26:16;;;;;;;21.20;5.30;;;;;;;18.29;55.20;99144.55;26923;1219;3026370;-65
2021/09/13 02:28:46;;;;;;;27.00;5.70;;;;;;;18.25;56.05;99151.69;26962;1220;3027049;-65
2021/09/13 02:31:15;;;;;;;21.40;6.00;;;;;;;18.22;56.51;99154.45;26892;1220;3026910;-64
2021/09/13 02:33:44;;;;;;;21.20;5.80;;;;;;;18.20;56.42;99157.64;26914;1219;3058198;-66
2021/09/13 02:36:13;;;;;;;18.90;5.50;;;;;;;18.13;57.12;99157.08;26910;1220;3025905;-68
2021/09/13 02:38:43;;;;;;;17.70;6.20;;;;;;;18.08;57.23;99154.41;26909;1220;3025929;-65
2021/09/13 02:41:12;;;;;;;28.20;6.10;;;;;;;18.03;57.43;99154.31;26933;1220;3026603;-64
2021/09/13 02:43:41;;;;;;;23.80;6.70;;;;;;;17.99;57.87;99158.96;26943;1220;3050283;-66
2021/09/13 02:46:12;;;;;;;22.80;7.30;;;;;;;17.93;57.95;99158.66;26931;1220;3025607;-66
2021/09/13 02:48:42;;;;;;;19.00;6.20;;;;;;;17.92;58.20;99160.15;26916;1220;3057660;-66
2021/09/13 02:51:12;;;;;;;18.30;6.50;;;;;;;17.85;58.18;99160.09;26925;1226;3027121;-63
2021/09/13 02:53:43;;;;;;;21.60;6.50;;;;;;;17.81;58.34;99167.91;26933;1219;3026723;-67
2021/09/13 02:56:19;;;;;;;19.80;6.70;;;;;;;17.81;57.89;99165.77;26904;1224;3053835;-65
2021/09/13 02:58:49;;;;;;;18.20;6.50;;;;;;;17.77;56.58;99159.93;26909;1220;3025852;-69
2021/09/13 03:01:18;;;;;;;26.70;6.40;;;;;;;17.76;56.69;99157.95;26922;1221;3026470;-67
2021/09/13 03:03:48;;;;;;;18.20;6.50;;;;;;;17.79;56.94;99161.02;26943;1221;3026371;-65
2021/09/13 03:06:17;;;;;;;21.30;5.90;;;;;;;17.82;56.56;99160.23;26919;1220;3025907;-64
2021/09/13 03:08:46;;;;;;;26.90;7.00;;;;;;;17.85;56.29;99160.81;26924;1220;3048474;-64
2021/09/13 03:11:16;;;;;;;21.40;6.90;;;;;;;17.82;55.95;99163.41;26932;1220;3027743;-66
2021/09/13 03:13:44;;;;;;;17.70;6.50;;;;;;;17.78;55.77;99159.64;26892;1220;3066886;-64
2021/09/13 03:16:14;;;;;;;22.20;6.30;;;;;;;17.77;55.46;99155.16;26943;1220;3027818;-63
2021/09/13 03:18:44;;;;;;;20.50;5.90;;;;;;;17.77;56.15;99160.45;26982;1219;3028541;-68
2021/09/13 03:21:12;;;;;;;25.60;6.50;;;;;;;17.82;55.98;99161.48;26934;1220;3027902;-63
2021/09/13 03:23:42;;;;;;;21.70;5.20;;;;;;;17.78;55.94;99161.44;26962;1218;3047386;-62
2021/09/13 03:26:12;;;;;;;21.20;5.50;;;;;;;17.79;55.81;99159.45;26918;1220;3026271;-64
2021/09/13 03:28:42;;;;;;;24.10;6.00;;;;;;;17.84;55.65;99163.90;27009;1218;3025844;-64
2021/09/13 03:31:11;;;;;;;18.60;5.50;;;;;;;17.84;55.35;99165.48;26901;1220;3026738;-68
2021/09/13 03:33:40;;;;;;;21.10;5.00;;;;;;;17.85;53.94;99162.77;26965;1219;3025748;-64
2021/09/13 03:36:10;;;;;;;20.60;5.40;;;;;;;17.85;53.41;99162.20;27028;1218;3026139;-63
2021/09/13 03:38:39;;;;;;;22.70;4.60;;;;;;;17.83;52.80;99163.85;26971;1218;3057347;-66
2021/09/13 03:41:10;;;;;;;11.30;4.00;;;;;;;17.84;52.30;99160.21;26931;1219;3028409;-66
2021/09/13 03:43:39;;;;;;;16.90;4.00;;;;;;;17.87;51.85;99159.59;26944;1218;3026066;-63
2021/09/13 03:46:08;;;;;;;24.60;4.20;;;;;;;17.89;51.84;99163.61;26962;1221;3055111;-64
2021/09/13 03:48:55;;;;;;;19.90;4.10;;;;;;;17.91;51.76;99161.08;26967;1218;3049760;-67
2021/09/13 03:51:25;;;;;;;15.30;4.40;;;;;;;18.00;51.85;99161.89;26907;1220;3026231;-70
2021/09/13 03:53:58;;;;;;;13.90;4.90;;;;;;;18.06;52.36;99159.04;26924;1220;3058632;-70
2021/09/13 03:56:27;;;;;;;34.60;5.50;;;;;;;18.12;52.60;99164.66;27001;1218;3026448;-65
2021/09/13 03:58:57;;;;;;;18.30;4.30;;;;;;;18.19;52.37;99163.63;26996;1218;3026989;-63
2021/09/13 04:01:28;;;;;;;25.30;4.30;;;;;;;18.21;52.59;99168.88;26978;1218;3027663;-68
2021/09/13 04:04:00;;;;;;;24.30;5.00;;;;;;;18.23;52.57;99169.95;26895;1220;3027072;-68
2021/09/13 04:12:26;;;;;;;23.60;4.40;;;;;;;18.20;50.38;99171.61;26934;1222;3052208;-68
2021/09/13 04:15:14;;;;;;;14.60;4.00;;;;;;;18.26;50.96;99170.86;26991;1222;3058866;-68
2021/09/13 04:18:04;;;;;;;22.10;4.50;;;;;;;18.29;50.92;99171.52;26957;1227;3049427;-68
2021/09/13 04:20:58;;;;;;;16.50;3.90;;;;;;;18.33;51.08;99166.34;26989;1218;3052195;-66
2021/09/13 04:23:38;;;;;;;23.10;5.10;;;;;;;18.43;51.42;99166.71;26938;1223;3054068;-68
2021/09/13 04:26:46;;;;;;;18.50;4.30;;;;;;;18.53;51.54;99163.61;26814;1231;3071168;-69
2021/09/13 04:29:42;;;;;;;20.70;4.30;;;;;;;18.57;51.99;99168.90;26881;1225;3051997;-66
2021/09/13 04:32:29;;;;;;;26.10;5.20;;;;;;;18.63;52.43;99173.99;26804;1223;3054450;-66
2021/09/13 04:35:26;;;;;;;18.50;4.40;;;;;;;18.64;52.86;99169.64;26838;1228;3054919;-68
2021/09/13 04:38:21;;;;;;;19.00;5.00;;;;;;;18.68;52.27;99169.94;26821;1231;3056280;-69
2021/09/13 04:41:00;;;;;;;15.20;4.70;;;;;;;18.73;52.18;99171.39;26822;1224;3049061;-67
2021/09/13 04:43:56;;;;;;;17.10;4.60;;;;;;;18.81;52.24;99170.27;26827;1228;3052920;-67
2021/09/13 04:46:43;;;;;;;17.80;5.40;;;;;;;18.85;52.14;99173.04;26839;1232;3054215;-67
2021/09/13 04:49:48;;;;;;;21.70;4.90;;;;;;;18.91;51.81;99166.27;26817;1232;3071035;-63
2021/09/13 04:52:33;;;;;;;19.60;4.50;;;;;;;18.98;51.08;99164.72;26841;1223;3047819;-65
2021/09/13 04:55:03;;;;;;;25.10;5.90;;;;;;;19.05;51.15;99159.22;26825;1228;3026569;-68
2021/09/13 04:57:33;;;;;;;14.20;4.80;;;;;;;19.12;50.92;99160.97;26914;1227;3069108;-64
2021/09/13 05:00:03;;;;;;;20.80;5.50;;;;;;;19.20;50.72;99160.61;26980;1222;3026141;-65
2021/09/13 05:02:33;;;;;;;14.20;4.20;;;;;;;19.28;51.16;99159.21;26945;1219;3053581;-67
2021/09/13 05:05:02;;;;;;;20.20;4.50;;;;;;;19.39;50.90;99160.41;26907;1229;3026322;-66
2021/09/13 05:07:32;;;;;;;27.50;4.30;;;;;;;19.48;50.88;99162.89;26943;1224;3053805;-68
2021/09/13 05:10:08;;;;;;;21.00;5.10;;;;;;;19.56;50.96;99159.00;26923;1224;3053455;-68
2021/09/13 05:12:37;;;;;;;18.90;4.90;;;;;;;19.64;50.74;99157.89;26863;1231;3026885;-66
2021/09/13 05:15:26;;;;;;;26.80;5.80;;;;;;;19.70;51.67;99158.14;26918;1225;3049153;-69
2021/09/13 05:17:56;;;;;;;21.80;5.90;;;;;;;19.71;53.73;99162.94;26954;1222;3026295;-64
2021/09/13 05:20:25;;;;;;;28.80;6.50;;;;;;;19.73;54.59;99163.67;26959;1222;3025868;-63
2021/09/13 05:22:56;;;;;;;21.30;6.60;;;;;;;19.71;54.55;99169.80;26936;1222;3026767;-67
2021/09/13 05:25:26;;;;;;;23.30;6.10;;;;;;;19.69;52.89;99168.39;26967;1222;3026070;-66
2021/09/13 05:27:58;;;;;;;26.40;7.10;;;;;;;19.69;52.59;99165.90;26950;1225;3026422;-65
2021/09/13 05:30:27;;;;;;;24.70;7.80;;;;;;;19.71;52.93;99167.83;26936;1225;3026231;-68
2021/09/13 05:32:56;;;;;;;20.60;8.10;;;;;;;19.74;53.34;99171.88;26885;1220;3051597;-65
2021/09/13 05:35:27;;;;;;;33.00;8.20;;;;;;;19.77;53.97;99168.73;27000;1226;3026503;-63
2021/09/13 05:37:56;;;;;;;27.00;8.70;;;;;;;19.79;54.22;99167.27;27017;1222;3026351;-63
2021/09/13 05:40:25;;;;;;;32.10;8.40;;;;;;;19.86;53.95;99170.17;26980;1222;3026387;-67
2021/09/13 05:42:56;;;;;;;24.70;8.30;;;;;;;19.90;53.60;99171.02;26991;1223;3026759;-63
2021/09/13 05:45:25;;;;;;;25.90;6.80;;;;;;;19.94;53.14;99168.77;26988;1222;3026015;-65
2021/09/13 05:47:54;;;;;;;27.80;6.60;;;;;;;20.03;52.73;99171.27;26916;1222;3067224;-68
2021/09/13 05:50:24;;;;;;;30.80;6.30;;;;;;;20.12;52.46;99176.40;26935;1220;3026176;-66
2021/09/13 05:52:54;;;;;;;30.10;5.90;;;;;;;20.20;52.40;99178.06;26978;1222;3050726;-69
2021/09/13 05:55:23;;;;;;;21.20;5.90;;;;;;;20.27;52.54;99177.23;26905;1218;3028811;-67
2021/09/13 05:57:53;;;;;;;26.20;5.80;;;;;;;20.36;52.42;99182.04;27004;1222;3026231;-68
2021/09/13 06:00:22;;;;;;;27.20;5.10;;;;;;;20.38;52.44;99184.48;27015;1222;3026114;-65
2021/09/13 06:02:52;;;;;;;27.70;6.10;;;;;;;20.49;52.03;99187.26;26901;1222;3068170;-65
2021/09/13 06:05:36;;;;;;;25.20;5.80;;;;;;;20.58;51.70;99185.94;26976;1222;3050443;-66
2021/09/13 06:08:05;;;;;;;26.00;5.40;;;;;;;20.64;52.55;99188.48;26947;1219;3026441;-64
2021/09/13 06:10:35;;;;;;;40.90;5.30;;;;;;;20.71;52.13;99187.83;26999;1227;3070327;-67
2021/09/13 06:13:06;;;;;;;23.10;4.70;;;;;;;20.78;51.26;99185.73;26932;1226;3027275;-62
2021/09/13 06:15:36;;;;;;;24.70;3.80;;;;;;;20.88;49.92;99187.48;26948;1221;3028721;-68
2021/09/13 06:18:07;;;;;;;21.50;3.60;;;;;;;20.96;49.53;99186.91;27002;1221;3028456;-66
2021/09/13 06:20:36;;;;;;;28.20;4.20;;;;;;;21.03;49.00;99186.59;26937;1219;3026370;-69
2021/09/13 06:23:05;;;;;;;29.60;4.30;;;;;;;21.14;48.59;99186.65;26936;1224;3026736;-63
2021/09/13 06:25:36;;;;;;;21.30;4.30;;;;;;;21.25;48.34;99186.73;27009;1219;3052611;-66
2021/09/13 06:28:05;;;;;;;23.30;4.60;;;;;;;21.32;48.14;99179.36;26970;1221;3026497;-62
2021/09/13 06:30:47;;;;;;;23.00;4.50;;;;;;;21.42;47.48;99182.84;26910;1222;3051412;-64
2021/09/13 06:33:18;;;;;;;21.60;5.20;;;;;;;21.54;47.34;99181.27;26918;1227;3026024;-65
2021/09/13 06:35:47;;;;;;;28.40;4.90;;;;;;;21.65;46.72;99179.70;26979;1222;3026579;-69
2021/09/13 06:38:23;;;;;;;25.00;5.30;;;;;;;21.75;46.40;99183.15;26948;1219;3049408;-70
2021/09/13 06:40:52;;;;;;;20.80;4.90;;;;;;;21.88;46.85;99181.60;26921;1219;3026459;-70
2021/09/13 06:43:21;;;;;;;36.10;5.90;;;;;;;21.98;46.30;99183.87;26951;1219;3057441;-65
2021/09/13 06:46:10;;;;;;;28.50;6.00;;;;;;;22.05;45.68;99182.33;26923;1226;3051752;-67
2021/09/13 06:48:42;;;;;;;31.00;5.30;;;;;;;22.11;45.42;99179.52;26978;1222;3055618;-63
2021/09/13 06:51:11;;;;;;;21.00;4.40;;;;;;;22.18;45.03;99180.65;26928;1227;3026098;-66
2021/09/13 06:53:39;;;;;;;17.10;4.30;;;;;;;22.26;44.58;99178.67;26927;1222;3026085;-65
2021/09/13 06:56:11;;;;;;;18.40;4.50;;;;;;;22.33;44.89;99177.94;26991;1222;3051591;-66
2021/09/13 06:58:39;;;;;;;15.70;4.20;;;;;;;22.39;45.25;99186.90;27018;1219;3029486;-66
2021/09/13 07:01:08;;;;;;;22.80;4.80;;;;;;;22.42;44.64;99185.67;26902;1222;3026258;-64
2021/09/13 07:03:37;;;;;;;14.40;4.00;;;;;;;22.51;44.42;99187.33;26942;1227;3054518;-66
2021/09/13 07:06:06;;;;;;;16.40;4.50;;;;;;;22.55;44.64;99189.02;26904;1225;3026583;-69
2021/09/13 07:08:36;;;;;;;12.80;4.20;;;;;;;22.63;44.71;99193.23;26958;1220;3048459;-65
2021/09/13 07:11:06;;;;;;;15.30;3.80;;;;;;;22.66;45.06;99195.39;27028;1221;3026502;-64
2021/09/13 07:13:35;;;;;;;12.50;3.80;;;;;;;22.75;44.47;99197.80;27021;1220;3057840;-64
2021/09/13 07:16:06;;;;;;;21.70;3.60;;;;;;;22.84;43.76;99193.32;26967;1222;3026705;-68
2021/09/13 07:18:36;;;;;;;20.90;3.70;;;;;;;22.92;43.55;99191.71;27042;1222;3027435;-67
2021/09/13 07:21:08;;;;;;;22.00;4.40;;;;;;;22.96;43.17;99189.54;26995;1222;3026679;-63
2021/09/13 07:23:37;;;;;;;29.10;6.60;;;;;;;22.93;43.11;99195.90;26964;1222;3026309;-64
2021/09/13 07:26:06;;;;;;;23.10;4.60;;;;;;;22.95;42.95;99193.67;26946;1229;3051365;-64
2021/09/13 07:28:35;;;;;;;18.70;4.10;;;;;;;23.01;43.14;99195.80;27042;1222;3026667;-62
2021/09/13 07:31:04;;;;;;;14.60;3.70;;;;;;;23.12;42.64;99194.33;26928;1229;3050150;-66
2021/09/13 07:33:32;;;;;;;18.90;3.70;;;;;;;23.22;41.94;99195.17;27039;1220;3026009;-63
2021/09/13 07:36:02;;;;;;;18.60;4.20;;;;;;;23.30;41.78;99191.01;26971;1222;3055604;-67
2021/09/13 07:38:31;;;;;;;21.10;4.10;;;;;;;23.36;40.66;99188.63;26993;1223;3027308;-64
2021/09/13 07:41:00;;;;;;;16.00;3.50;;;;;;;23.41;40.37;99184.84;27009;1219;3025881;-66
2021/09/13 07:43:29;;;;;;;11.60;3.10;;;;;;;23.49;39.63;99184.90;27017;1218;3058088;-65
2021/09/13 07:45:59;;;;;;;11.50;3.20;;;;;;;23.56;39.10;99189.33;26944;1219;3026715;-65
2021/09/13 07:48:29;;;;;;;14.80;3.20;;;;;;;23.66;39.62;99187.86;27079;1222;3026487;-67
2021/09/13 07:50:58;;;;;;;15.50;3.30;;;;;;;23.72;39.37;99186.75;27005;1222;3027875;-64
2021/09/13 07:53:27;;;;;;;17.30;3.10;;;;;;;23.78;39.20;99187.01;26962;1222;3048695;-65
2021/09/13 07:55:56;;;;;;;14.60;2.80;;;;;;;23.86;37.81;99189.04;27014;1219;3025846;-65
2021/09/13 07:58:25;;;;;;;12.10;2.50;;;;;;;23.89;37.25;99185.09;26994;1227;3058363;-69
2021/09/13 08:00:54;;;;;;;11.20;2.50;;;;;;;23.98;36.83;99187.34;27057;1221;3026595;-65
2021/09/13 08:03:24;;;;;;;16.70;2.20;;;;;;;24.07;36.85;99191.27;26896;1225;3053869;-64
2021/09/13 08:05:53;;;;;;;9.20;1.90;;;;;;;24.13;36.33;99186.24;27036;1219;3026291;-62
2021/09/13 08:08:22;;;;;;;8.90;2.20;;;;;;;24.19;36.29;99183.21;26927;1220;3026349;-65
2021/09/13 08:10:52;;;;;;;11.20;2.70;;;;;;;24.28;36.83;99184.42;27015;1219;3053197;-67
2021/09/13 08:13:21;;;;;;;12.10;2.80;;;;;;;24.33;36.71;99178.25;26994;1219;3026037;-65
2021/09/13 08:15:52;;;;;;;8.10;2.10;;;;;;;24.35;36.67;99176.98;26987;1221;3027686;-65
2021/09/13 08:18:22;;;;;;;14.70;2.80;;;;;;;24.45;36.50;99175.23;26966;1222;3026208;-65
2021/09/13 08:20:52;;;;;;;8.30;2.60;;;;;;;24.48;36.39;99174.61;27040;1220;3027955;-66
2021/09/13 08:23:23;;;;;;;12.10;2.40;;;;;;;24.57;36.59;99172.50;27024;1222;3027308;-65
2021/09/13 08:25:52;;;;;;;16.30;2.30;;;;;;;24.60;36.05;99170.14;26956;1219;3028035;-63
2021/09/13 08:28:23;;;;;;;14.70;2.90;;;;;;;24.70;36.10;99168.98;26982;1219;3026596;-61
2021/09/13 08:30:54;;;;;;;16.30;3.00;;;;;;;24.80;36.53;99166.48;26947;1221;3028801;-66
2021/09/13 08:33:23;;;;;;;11.30;2.80;;;;;;;24.88;35.98;99165.59;26951;1222;3026309;-65
2021/09/13 08:35:54;;;;;;;12.60;2.70;;;;;;;24.95;35.48;99163.35;27018;1222;3027817;-65
2021/09/13 08:38:23;;;;;;;12.10;2.40;;;;;;;25.01;35.68;99164.59;27020;1227;3053372;-64
2021/09/13 08:40:58;;;;;;;10.70;2.70;;;;;;;25.02;34.61;99159.89;27047;1220;3058384;-63
2021/09/13 08:43:27;;;;;;;13.50;2.70;;;;;;;25.02;34.55;99164.23;26993;1222;3026592;-65
2021/09/13 08:46:00;;;;;;;9.30;2.30;;;;;;;25.08;34.93;99160.79;27055;1222;3026717;-66
2021/09/13 08:48:35;;;;;;;4.50;1.90;;;;;;;25.15;34.79;99155.95;26960;1222;3026507;-64
2021/09/13 08:53:52;;;;;;;12.70;3.10;;;;;;;25.16;33.76;99153.63;27054;1228;3051221;-64
2021/09/13 08:56:27;;;;;;;9.80;2.40;;;;;;;25.17;34.13;99151.27;26967;1227;3051800;-67
2021/09/13 08:58:56;;;;;;;3.90;1.80;;;;;;;25.23;34.32;99151.68;26976;1221;3051035;-66
2021/09/13 09:01:26;;;;;;;13.00;2.60;;;;;;;25.35;34.49;99144.96;26984;1222;3027735;-66
2021/09/13 09:03:55;;;;;;;7.60;2.90;;;;;;;25.42;34.38;99149.19;26943;1219;3026366;-63
2021/09/13 09:06:38;;;;;;;10.70;2.30;;;;;;;25.50;34.38;99145.47;27014;1222;3053926;-67
2021/09/13 09:09:18;;;;;;;8.90;2.40;;;;;;;25.60;33.90;99144.55;27003;1218;3056001;-62
2021/09/13 09:12:13;;;;;;;14.10;2.80;;;;;;;25.62;34.32;99147.65;26920;1222;3049689;-66
2021/09/13 09:14:48;;;;;;;12.60;3.60;;;;;;;25.59;33.53;99146.06;26970;1226;3055154;-65
2021/09/13 09:17:21;;;;;;;9.40;2.50;;;;;;;25.46;33.86;99148.77;26979;1222;3051682;-67
2021/09/13 09:20:02;;;;;;;7.40;2.60;;;;;;;25.56;33.78;99142.36;27003;1222;3071029;-63
2021/09/13 09:22:31;;;;;;;9.90;2.60;;;;;;;25.77;34.02;99144.48;27020;1222;3048610;-65
2021/09/13 09:25:03;;;;;;;10.50;2.50;;;;;;;25.90;33.89;99142.11;26975;1219;3026265;-66
2021/09/13 09:27:53;;;;;;;11.50;2.30;;;;;;;25.96;33.41;99140.60;27012;1220;3026298;-66
2021/09/13 09:30:45;;;;;;;13.00;3.40;;;;;;;25.97;33.67;99137.05;27050;1222;3055487;-66
2021/09/13 09:33:16;;;;;;;9.60;3.10;;;;;;;25.86;33.87;99133.80;27066;1220;3052304;-65
2021/09/13 09:35:46;;;;;;;9.00;2.70;;;;;;;26.02;33.60;99131.06;27003;1222;3025930;-65
2021/09/13 09:38:37;;;;;;;11.50;2.70;;;;;;;26.00;33.90;99130.52;26961;1220;3025845;-64
2021/09/13 09:41:08;;;;;;;9.70;2.60;;;;;;;26.19;33.51;99135.04;26925;1222;3067903;-63
2021/09/13 09:43:57;;;;;;;15.30;2.60;;;;;;;26.35;33.13;99129.92;26968;1222;3026445;-65
2021/09/13 09:46:39;;;;;;;9.40;2.70;;;;;;;26.39;32.89;99129.40;26995;1222;3054643;-61
2021/09/13 09:49:12;;;;;;;8.70;2.60;;;;;;;26.49;33.03;99127.84;26990;1222;3054877;-64
2021/09/13 09:51:52;;;;;;;12.10;2.60;;;;;;;26.59;33.28;99120.45;27021;1222;3058969;-65
2021/09/13 09:54:21;;;;;;;7.30;2.30;;;;;;;26.67;32.59;99117.80;27041;1222;3049290;-62
2021/09/13 09:57:04;;;;;;;13.70;2.90;;;;;;;26.82;33.18;99118.20;26984;1222;3026397;-65
2021/09/13 09:59:33;;;;;;;11.30;2.80;;;;;;;26.94;33.12;99116.86;27005;1222;3051690;-65
2021/09/13 10:02:16;;;;;;;17.90;3.20;;;;;;;26.97;32.87;99111.01;27027;1219;3026518;-66
2021/09/13 10:04:49;;;;;;;10.90;2.70;;;;;;;27.07;32.71;99110.31;27000;1221;3052910;-61
2021/09/13 10:07:18;;;;;;;16.00;3.30;;;;;;;27.21;32.47;99108.63;26989;1225;3025933;-63
2021/09/13 10:09:52;;;;;;;9.30;2.40;;;;;;;27.23;32.53;99111.65;27043;1222;3070229;-61
2021/09/13 10:12:22;;;;;;;12.70;3.10;;;;;;;27.34;32.08;99113.25;26912;1224;3026071;-62
2021/09/13 10:14:51;;;;;;;9.70;2.90;;;;;;;27.43;31.93;99109.14;26907;1222;3025910;-66
2021/09/13 10:17:20;;;;;;;11.90;2.90;;;;;;;27.34;31.98;99105.27;26943;1221;3070005;-64
2021/09/13 10:19:49;;;;;;;11.30;2.60;;;;;;;27.33;31.21;99104.57;27003;1220;3026322;-62
2021/09/13 10:22:19;;;;;;;8.50;2.90;;;;;;;27.40;31.48;99105.75;27036;1219;3053830;-60
2021/09/13 10:24:48;;;;;;;12.80;2.90;;;;;;;27.47;31.33;99104.10;27029;1222;3026504;-61
2021/09/13 10:27:20;;;;;;;13.70;2.90;;;;;;;27.56;31.61;99102.84;26978;1229;3027970;-60
2021/09/13 10:30:09;;;;;;;11.40;2.70;;;;;;;27.69;30.93;99100.71;26940;1221;3050342;-61
2021/09/13 10:32:41;;;;;;;9.50;2.80;;;;;;;27.88;30.12;99097.02;26984;1220;3070526;-64
2021/09/13 10:35:12;;;;;;;7.70;3.10;;;;;;;27.93;30.03;99097.29;26946;1227;3026122;-65
2021/09/13 10:37:42;;;;;;;12.30;2.80;;;;;;;28.01;30.45;99099.41;26947;1224;3026020;-61
2021/09/13 10:40:28;;;;;;;8.50;2.90;;;;;;;27.96;30.42;99099.17;26987;1222;3027019;-63
2021/09/13 10:42:59;;;;;;;15.20;2.70;;;;;;;28.02;30.21;99098.48;27006;1222;3056385;-61
2021/09/13 10:45:36;;;;;;;9.80;2.50;;;;;;;28.13;30.27;99097.37;26969;1219;3028665;-65
2021/09/13 10:48:16;;;;;;;11.90;3.10;;;;;;;28.21;29.62;99096.08;27039;1220;3052866;-60
2021/09/13 10:50:46;;;;;;;8.70;2.70;;;;;;;28.22;29.34;99093.33;27043;1220;3053315;-62
2021/09/13 10:53:18;;;;;;;8.00;2.80;;;;;;;28.30;28.78;99092.44;26999;1219;3025892;-63
2021/09/13 10:55:58;;;;;;;13.90;3.10;;;;;;;28.35;28.82;99098.39;27023;1221;3028067;-63
2021/09/13 10:58:33;;;;;;;13.20;3.20;;;;;;;28.40;28.77;99093.87;27040;1220;3052240;-63
2021/09/13 11:01:06;;;;;;;9.70;3.30;;;;;;;28.46;28.89;99094.82;27034;1222;3053087;-63
2021/09/13 11:03:37;;;;;;;9.30;2.60;;;;;;;28.49;28.59;99091.27;27001;1222;3058286;-62
2021/09/13 11:06:07;;;;;;;11.10;2.90;;;;;;;28.51;27.63;99089.09;26959;1219;3028144;-62
2021/09/13 11:08:38;;;;;;;9.70;3.00;;;;;;;28.50;27.47;99087.83;27048;1220;3026872;-63
2021/09/13 11:11:11;;;;;;;9.80;2.40;;;;;;;28.56;27.56;99085.15;27047;1219;3026454;-63
2021/09/13 11:13:44;;;;;;;8.10;3.10;;;;;;;28.52;28.22;99082.28;26998;1220;3070813;-62
2021/09/13 11:16:17;;;;;;;8.60;2.80;;;;;;;28.54;28.19;99075.95;27022;1220;3025992;-63
2021/09/13 11:18:48;;;;;;;9.50;2.60;;;;;;;28.72;27.59;99076.02;27025;1220;3053620;-65
2021/09/13 11:21:28;;;;;;;10.60;3.10;;;;;;;28.76;27.22;99075.34;27010;1220;3026692;-62
2021/09/13 11:24:08;;;;;;;10.10;3.20;;;;;;;28.65;27.80;99074.04;27015;1222;3056913;-65
2021/09/13 11:26:54;;;;;;;7.70;3.10;;;;;;;28.78;27.22;99071.61;27023;1218;3049550;-68
2021/09/13 11:29:31;;;;;;;5.50;2.50;;;;;;;28.86;27.07;99068.55;27004;1222;3054896;-62
2021/09/13 11:32:12;;;;;;;16.00;2.90;;;;;;;28.83;27.29;99067.11;27036;1218;3051174;-63
2021/09/13 11:34:43;;;;;;;12.70;3.20;;;;;;;28.94;28.11;99066.93;27016;1220;3071182;-62
2021/09/13 11:37:20;;;;;;;12.20;3.00;;;;;;;29.01;27.67;99067.20;26974;1225;3026046;-64
2021/09/13 11:39:52;;;;;;;11.20;3.30;;;;;;;28.95;27.32;99063.77;26991;1220;3052042;-62
2021/09/13 11:42:25;;;;;;;11.00;2.70;;;;;;;28.92;27.50;99062.53;27017;1220;3028782;-65
2021/09/13 11:45:05;;;;;;;14.30;3.00;;;;;;;28.91;27.58;99058.77;27013;1221;3058636;-64